Time;durP1;ratioP1;P1;durP2;ratioP2;P2;SDS_P1;SDS_P2;PMS_P1;PMS_P2;Temp;Humidity;BMP_temperature;BMP_pressure;BME280_temperature;BME280_humidity;BME280_pressure;Samples;Min_cycle;Max_cycle;Signal;HPM_P1;HPM_P2
2023/12/18 00:02:15;;;;;;;4.50;2.90;;;;;;;6.75;95.81;101606.89;181330;1254;44352;-87
2023/12/18 00:06:19;;;;;;;7.00;2.70;;;;;;;6.82;96.78;101605.52;181253;1255;43869;-88
2023/12/18 00:10:22;;;;;;;3.60;2.70;;;;;;;6.88;97.06;101598.71;181408;1255;59859;-88
2023/12/18 00:14:25;;;;;;;3.30;1.50;;;;;;;6.94;97.39;101595.98;181234;1254;43826;-88
2023/12/18 00:18:28;;;;;;;2.60;2.30;;;;;;;7.03;97.64;101595.76;181456;1255;44034;-87
2023/12/18 00:22:32;;;;;;;3.60;2.10;;;;;;;7.10;97.49;101592.27;181242;1254;45571;-87
2023/12/18 00:26:35;;;;;;;3.30;2.60;;;;;;;7.14;97.33;101588.01;181301;1254;43825;-87
2023/12/18 00:30:38;;;;;;;3.70;2.10;;;;;;;7.18;97.03;101579.53;181392;1254;58655;-87
2023/12/18 00:34:41;;;;;;;4.70;1.70;;;;;;;7.20;97.03;101567.64;181449;1258;43853;-87
2023/12/18 00:38:45;;;;;;;2.90;1.50;;;;;;;7.22;96.87;101563.99;181329;1255;43797;-86
2023/12/18 00:42:48;;;;;;;3.30;1.70;;;;;;;7.22;96.83;101555.67;181371;1254;44222;-88
2023/12/18 00:46:51;;;;;;;1.70;1.40;;;;;;;7.25;96.90;101552.55;181343;1254;43835;-88
2023/12/18 00:50:54;;;;;;;2.90;2.10;;;;;;;7.26;96.89;101553.73;181286;1256;59380;-87
2023/12/18 00:54:58;;;;;;;2.70;1.90;;;;;;;7.27;97.19;101554.73;181189;1254;44138;-87
2023/12/18 00:59:01;;;;;;;1.90;0.90;;;;;;;7.30;97.52;101550.55;181425;1254;44227;-87
2023/12/18 01:03:04;;;;;;;2.40;1.50;;;;;;;7.30;97.69;101542.96;181426;1254;43797;-86
2023/12/18 01:07:08;;;;;;;2.30;1.80;;;;;;;7.34;97.96;101538.74;181218;1257;43838;-86
2023/12/18 01:11:11;;;;;;;2.60;1.60;;;;;;;7.34;98.39;101536.94;181333;1254;58118;-87
2023/12/18 01:15:15;;;;;;;2.30;0.80;;;;;;;7.36;99.00;101542.52;181407;1254;44087;-88
2023/12/18 01:19:18;;;;;;;1.50;1.30;;;;;;;7.39;99.15;101541.82;181252;1254;44035;-86
2023/12/18 01:23:22;;;;;;;1.80;1.30;;;;;;;7.43;99.77;101533.72;181269;1254;44141;-88
2023/12/18 01:27:25;;;;;;;1.80;1.00;;;;;;;7.45;100.00;101536.60;181401;1254;44141;-87
2023/12/18 01:31:28;;;;;;;3.10;1.60;;;;;;;7.49;100.00;101526.02;181321;1254;59521;-87
2023/12/18 01:35:33;;;;;;;1.50;1.20;;;;;;;7.51;100.00;101520.80;181559;1254;44130;-86
2023/12/18 01:39:36;;;;;;;1.30;1.00;;;;;;;7.52;100.00;101522.13;181474;1254;43790;-86
2023/12/18 01:43:40;;;;;;;4.20;1.50;;;;;;;7.53;100.00;101514.33;181517;1254;43765;-87
2023/12/18 01:47:44;;;;;;;2.00;1.40;;;;;;;7.58;100.00;101515.50;181300;1254;43805;-85
2023/12/18 01:51:47;;;;;;;3.40;2.10;;;;;;;7.64;100.00;101516.29;181344;1254;59364;-87
2023/12/18 01:55:51;;;;;;;5.60;1.40;;;;;;;7.63;100.00;101512.24;181260;1254;44091;-87
2023/12/18 01:59:55;;;;;;;5.20;1.90;;;;;;;7.62;100.00;101505.23;181398;1254;43764;-87
2023/12/18 02:03:59;;;;;;;4.60;2.50;;;;;;;7.63;100.00;101502.38;181357;1254;44028;-87
2023/12/18 02:08:03;;;;;;;1.40;1.20;;;;;;;7.63;100.00;101501.85;181265;1254;43830;-87
2023/12/18 02:12:07;;;;;;;4.60;2.80;;;;;;;7.59;100.00;101500.45;181430;1254;57336;-86
2023/12/18 02:16:10;;;;;;;1.80;1.60;;;;;;;7.58;100.00;101498.55;181316;1254;43960;-87
2023/12/18 02:20:14;;;;;;;1.90;1.30;;;;;;;7.56;100.00;101495.80;181448;1254;43898;-86
2023/12/18 02:24:18;;;;;;;3.70;1.10;;;;;;;7.59;100.00;101491.29;181345;1254;43938;-87
2023/12/18 02:28:21;;;;;;;1.50;0.90;;;;;;;7.60;100.00;101484.33;181317;1254;43875;-87
2023/12/18 02:32:25;;;;;;;1.80;1.10;;;;;;;7.60;100.00;101479.23;181237;1254;59063;-87
2023/12/18 02:36:29;;;;;;;2.10;1.50;;;;;;;7.56;100.00;101472.52;181327;1254;44090;-86
2023/12/18 02:40:32;;;;;;;2.60;1.10;;;;;;;7.55;100.00;101467.29;181303;1254;44538;-87
2023/12/18 02:44:35;;;;;;;3.70;1.70;;;;;;;7.57;100.00;101465.41;181312;1254;44063;-87
2023/12/18 02:48:38;;;;;;;2.20;1.40;;;;;;;7.61;100.00;101467.35;181209;1254;43923;-87
2023/12/18 02:52:42;;;;;;;2.60;1.70;;;;;;;7.69;100.00;101470.85;181388;1254;58628;-87
2023/12/18 02:56:45;;;;;;;2.30;1.60;;;;;;;7.75;100.00;101469.27;181504;1254;43827;-87
2023/12/18 03:00:49;;;;;;;4.40;1.50;;;;;;;7.80;100.00;101460.87;181440;1254;43859;-87
2023/12/18 03:04:52;;;;;;;4.20;1.60;;;;;;;7.86;100.00;101465.02;181312;1254;44149;-87
2023/12/18 03:08:55;;;;;;;0.70;0.70;;;;;;;7.91;100.00;101465.31;181417;1254;43985;-86
2023/12/18 03:12:59;;;;;;;1.90;1.00;;;;;;;7.95;100.00;101455.36;181301;1254;58198;-86
2023/12/18 03:17:02;;;;;;;1.00;0.80;;;;;;;7.97;100.00;101448.38;181329;1254;44026;-87
2023/12/18 03:21:10;;;;;;;1.20;1.00;;;;;;;8.01;100.00;101448.55;181313;1254;43798;-87
2023/12/18 03:25:13;;;;;;;1.20;0.80;;;;;;;8.08;100.00;101454.38;181272;1254;44278;-87
2023/12/18 03:29:16;;;;;;;1.80;1.00;;;;;;;8.11;100.00;101452.95;181236;1255;43876;-88
2023/12/18 03:33:19;;;;;;;2.00;1.20;;;;;;;8.12;100.00;101456.60;181408;1254;57959;-88
2023/12/18 03:37:23;;;;;;;1.60;0.90;;;;;;;8.13;100.00;101460.27;181350;1254;43836;-87
2023/12/18 03:41:26;;;;;;;1.80;1.70;;;;;;;8.10;100.00;101465.54;181388;1254;44132;-87
2023/12/18 03:45:29;;;;;;;5.40;1.90;;;;;;;7.93;100.00;101465.71;181269;1254;44094;-88
2023/12/18 03:49:33;;;;;;;1.30;1.20;;;;;;;7.76;100.00;101467.12;181402;1254;43858;-88
2023/12/18 03:53:36;;;;;;;3.60;1.40;;;;;;;7.68;100.00;101462.56;181472;1254;59747;-87
2023/12/18 03:57:39;;;;;;;1.30;0.90;;;;;;;7.64;100.00;101461.88;181533;1254;43793;-88
2023/12/18 04:01:43;;;;;;;3.00;1.80;;;;;;;7.54;100.00;101460.65;181341;1255;45013;-88
2023/12/18 04:05:46;;;;;;;3.90;1.60;;;;;;;7.51;100.00;101462.69;181246;1254;44169;-88
2023/12/18 04:09:50;;;;;;;2.70;1.00;;;;;;;7.42;100.00;101459.44;181383;1254;44144;-87
2023/12/18 04:13:54;;;;;;;2.00;1.30;;;;;;;7.32;100.00;101463.83;181544;1254;59088;-88
2023/12/18 04:17:57;;;;;;;2.20;1.60;;;;;;;7.11;100.00;101467.64;181346;1255;43866;-87
2023/12/18 04:22:01;;;;;;;1.40;1.20;;;;;;;7.12;100.00;101473.59;181120;1258;43867;-87
2023/12/18 04:26:04;;;;;;;2.60;1.50;;;;;;;7.26;100.00;101478.55;181483;1254;43822;-86
2023/12/18 04:30:08;;;;;;;1.20;0.90;;;;;;;7.19;100.00;101478.23;181366;1254;43878;-86
2023/12/18 04:34:11;;;;;;;1.60;1.40;;;;;;;7.17;100.00;101472.30;181356;1254;59392;-86
2023/12/18 04:38:14;;;;;;;2.70;1.80;;;;;;;7.03;100.00;101475.28;181315;1254;44158;-87
2023/12/18 04:42:18;;;;;;;1.20;1.00;;;;;;;6.85;100.00;101475.23;181347;1254;43795;-87
2023/12/18 04:46:21;;;;;;;1.00;0.70;;;;;;;6.91;100.00;101473.00;181352;1254;45660;-87
2023/12/18 04:50:24;;;;;;;3.20;1.90;;;;;;;7.18;100.00;101468.55;181486;1254;43833;-86
2023/12/18 04:54:27;;;;;;;2.30;1.50;;;;;;;7.49;100.00;101461.20;181510;1254;60561;-87
2023/12/18 04:58:31;;;;;;;5.50;2.10;;;;;;;7.70;100.00;101459.45;181465;1254;43760;-87
2023/12/18 05:02:36;;;;;;;2.00;1.40;;;;;;;7.88;100.00;101457.13;181338;1254;43926;-87
2023/12/18 05:06:40;;;;;;;2.70;1.20;;;;;;;7.98;100.00;101463.14;181392;1254;43977;-87
2023/12/18 05:10:44;;;;;;;1.20;1.00;;;;;;;8.01;100.00;101465.10;181337;1254;43822;-87
2023/12/18 05:14:47;;;;;;;1.40;0.80;;;;;;;8.01;100.00;101463.19;181239;1255;58227;-86
2023/12/18 05:18:50;;;;;;;1.60;1.20;;;;;;;8.03;99.95;101458.46;181332;1254;44133;-86
2023/12/18 05:22:54;;;;;;;2.20;1.10;;;;;;;8.08;99.58;101455.05;181348;1255;44298;-86
2023/12/18 05:26:57;;;;;;;2.90;1.00;;;;;;;8.19;99.00;101461.04;181321;1254;43964;-88
2023/12/18 05:31:00;;;;;;;1.30;1.10;;;;;;;8.24;97.50;101460.73;181437;1255;43979;-87
2023/12/18 05:35:04;;;;;;;3.30;1.60;;;;;;;8.42;96.26;101460.86;181345;1255;58214;-86
2023/12/18 05:39:07;;;;;;;2.60;0.80;;;;;;;8.53;94.58;101467.20;181544;1254;43862;-87
2023/12/18 05:43:10;;;;;;;0.90;0.90;;;;;;;8.56;94.53;101467.05;181304;1255;43913;-87
2023/12/18 05:47:14;;;;;;;1.70;0.90;;;;;;;8.58;94.39;101459.67;181374;1254;43969;-86
2023/12/18 05:51:19;;;;;;;0.90;0.60;;;;;;;8.69;93.72;101444.92;181491;1254;44063;-87
2023/12/18 05:55:22;;;;;;;1.30;0.90;;;;;;;8.77;92.59;101452.28;181314;1254;59544;-87
2023/12/18 05:59:26;;;;;;;2.60;1.10;;;;;;;8.83;92.02;101460.95;181283;1256;44130;-87
2023/12/18 06:03:29;;;;;;;1.40;1.30;;;;;;;8.84;92.01;101449.22;181361;1254;43907;-87
2023/12/18 06:07:32;;;;;;;0.90;0.80;;;;;;;8.91;91.78;101444.58;181378;1254;44231;-86
2023/12/18 06:11:36;;;;;;;3.80;1.30;;;;;;;8.92;91.55;101453.41;181400;1254;43904;-86
2023/12/18 06:15:39;;;;;;;3.20;1.60;;;;;;;8.86;91.55;101461.71;181372;1254;59554;-86
2023/12/18 06:19:43;;;;;;;1.40;1.10;;;;;;;8.82;91.95;101451.48;181324;1255;43986;-85
2023/12/18 06:23:47;;;;;;;2.40;1.10;;;;;;;8.77;91.65;101458.31;181297;1254;44089;-87
2023/12/18 06:27:50;;;;;;;3.80;1.40;;;;;;;8.83;91.52;101455.13;181327;1254;43816;-87
2023/12/18 06:31:53;;;;;;;1.60;1.10;;;;;;;8.84;91.00;101454.38;181424;1254;43729;-87
2023/12/18 06:35:57;;;;;;;2.30;1.90;;;;;;;8.90;90.08;101450.52;181542;1254;58308;-87
2023/12/18 06:40:01;;;;;;;2.70;2.00;;;;;;;8.99;89.30;101448.23;181368;1254;43790;-87
2023/12/18 06:44:05;;;;;;;1.50;1.40;;;;;;;9.08;89.26;101439.02;181394;1254;43840;-87
2023/12/18 06:48:08;;;;;;;3.30;1.70;;;;;;;9.10;89.46;101434.85;181298;1254;44201;-86
2023/12/18 06:52:11;;;;;;;2.10;1.10;;;;;;;9.07;89.46;101433.96;181349;1254;43901;-87
2023/12/18 06:56:14;;;;;;;1.40;1.00;;;;;;;9.03;89.57;101429.61;181451;1255;59212;-87
2023/12/18 07:00:18;;;;;;;1.60;1.10;;;;;;;8.99;89.73;101430.17;181210;1255;44189;-87
2023/12/18 07:04:25;;;;;;;2.80;1.00;;;;;;;8.96;89.99;101432.33;181331;1254;43917;-87
2023/12/18 07:08:29;;;;;;;1.90;0.90;;;;;;;8.85;90.46;101445.13;181374;1254;43944;-87
2023/12/18 07:12:32;;;;;;;1.80;0.80;;;;;;;8.75;91.23;101458.06;181468;1254;43839;-87
2023/12/18 07:16:35;;;;;;;2.10;1.90;;;;;;;8.55;92.55;101467.05;181332;1255;59336;-86
2023/12/18 07:20:38;;;;;;;3.70;1.90;;;;;;;8.38;93.86;101470.62;181536;1254;44308;-87
2023/12/18 07:24:41;;;;;;;1.20;0.90;;;;;;;8.27;94.18;101471.00;181369;1255;44168;-86
2023/12/18 07:28:45;;;;;;;2.50;1.40;;;;;;;8.38;93.82;101483.70;181571;1254;43969;-87
2023/12/18 07:32:48;;;;;;;3.70;1.50;;;;;;;8.55;92.98;101485.86;181388;1255;43825;-87
2023/12/18 07:36:52;;;;;;;3.40;1.30;;;;;;;8.69;91.61;101484.77;181320;1258;58581;-87
2023/12/18 07:40:55;;;;;;;4.90;2.50;;;;;;;8.74;91.56;101478.28;181502;1254;44276;-87
2023/12/18 07:44:58;;;;;;;9.00;3.20;;;;;;;8.67;92.51;101480.38;181480;1254;44052;-87
2023/12/18 07:49:02;;;;;;;3.20;1.80;;;;;;;8.57;93.51;101490.16;181568;1255;44734;-87
2023/12/18 07:53:06;;;;;;;3.50;2.30;;;;;;;8.59;93.92;101484.02;181465;1254;44232;-87
2023/12/18 07:57:09;;;;;;;3.20;1.60;;;;;;;8.66;94.10;101487.71;181414;1254;57617;-86
2023/12/18 08:01:16;;;;;;;3.10;1.90;;;;;;;8.84;92.98;101495.59;181404;1254;43853;-87
2023/12/18 08:05:23;;;;;;;2.00;1.20;;;;;;;9.03;92.53;101500.92;181388;1258;44141;-85
2023/12/18 08:09:26;;;;;;;3.40;1.90;;;;;;;9.11;92.34;101493.95;181310;1255;43860;-86
2023/12/18 08:13:29;;;;;;;2.60;2.00;;;;;;;9.24;91.07;101485.05;181354;1254;43924;-86
2023/12/18 08:17:39;;;;;;;3.30;1.50;;;;;;;9.37;89.89;101489.46;181514;1254;58675;-86
2023/12/18 08:21:43;;;;;;;4.10;1.90;;;;;;;9.55;88.17;101493.91;181358;1255;44130;-86
2023/12/18 08:25:46;;;;;;;4.40;2.50;;;;;;;9.60;87.57;101487.05;181435;1254;43988;-86
2023/12/18 08:29:49;;;;;;;3.20;2.50;;;;;;;9.61;87.70;101493.54;181490;1254;44033;-87
2023/12/18 08:33:53;;;;;;;4.50;3.30;;;;;;;9.62;87.03;101502.70;181453;1254;44060;-86
2023/12/18 08:37:56;;;;;;;5.10;2.60;;;;;;;9.64;87.15;101506.83;181265;1254;59507;-86
2023/12/18 08:41:59;;;;;;;6.30;5.00;;;;;;;9.63;87.68;101503.92;181478;1255;44048;-86
2023/12/18 08:46:02;;;;;;;5.30;3.90;;;;;;;9.55;87.28;101510.90;181548;1254;43978;-86
2023/12/18 08:50:06;;;;;;;30.80;20.70;;;;;;;9.57;87.27;101516.64;181470;1254;43876;-86
2023/12/18 08:54:09;;;;;;;21.20;15.70;;;;;;;9.56;86.64;101518.67;181395;1254;43720;-86
2023/12/18 08:58:12;;;;;;;16.40;12.60;;;;;;;9.46;86.55;101520.80;181252;1254;184671;-85
2023/12/18 09:02:15;;;;;;;9.40;5.60;;;;;;;9.50;86.71;101521.98;181461;1254;43985;-87
2023/12/18 09:06:19;;;;;;;6.30;4.00;;;;;;;9.55;86.65;101520.65;181598;1254;44073;-87
2023/12/18 09:10:23;;;;;;;4.20;2.90;;;;;;;9.60;87.58;101516.30;181428;1254;44233;-86
2023/12/18 09:14:26;;;;;;;6.30;4.00;;;;;;;9.58;87.66;101512.46;181543;1254;43785;-85
2023/12/18 09:18:29;;;;;;;4.70;4.00;;;;;;;9.66;85.76;101520.70;181434;1255;58331;-87
2023/12/18 09:22:33;;;;;;;6.10;5.00;;;;;;;9.78;85.79;101519.81;181334;1255;43901;-87
2023/12/18 09:26:37;;;;;;;7.80;6.10;;;;;;;9.83;84.61;101515.48;181523;1254;44112;-86
2023/12/18 09:30:40;;;;;;;6.50;4.00;;;;;;;9.84;84.25;101522.13;181448;1255;43997;-86
2023/12/18 09:34:43;;;;;;;4.70;3.60;;;;;;;9.91;84.45;101519.97;181435;1254;43833;-87
2023/12/18 09:38:47;;;;;;;4.80;3.00;;;;;;;9.91;83.67;101521.20;181505;1254;58231;-87
2023/12/18 09:42:54;;;;;;;9.20;4.50;;;;;;;9.92;83.25;101522.41;181358;1254;44307;-86
2023/12/18 09:46:59;;;;;;;6.90;6.00;;;;;;;9.97;83.35;101513.98;181485;1254;43819;-86
2023/12/18 09:51:07;;;;;;;5.60;4.90;;;;;;;9.98;83.29;101509.83;181486;1254;44022;-86
2023/12/18 09:55:11;;;;;;;7.80;5.80;;;;;;;10.03;82.99;101508.29;181442;1254;43919;-86
2023/12/18 09:59:16;;;;;;;7.90;5.10;;;;;;;10.05;82.40;101506.91;181364;1255;58926;-86
2023/12/18 10:03:19;;;;;;;13.40;7.90;;;;;;;10.02;82.49;101505.01;181455;1254;44063;-85
2023/12/18 10:07:23;;;;;;;28.50;16.40;;;;;;;10.05;83.31;101498.45;181335;1254;43797;-86
2023/12/18 10:11:26;;;;;;;18.50;9.00;;;;;;;10.09;83.20;101494.83;181444;1255;44356;-86
2023/12/18 10:15:32;;;;;;;7.30;5.40;;;;;;;10.20;82.45;101492.05;181319;1255;44224;-86
2023/12/18 10:19:36;;;;;;;5.60;3.70;;;;;;;10.20;83.12;101481.02;181397;1255;60868;-86
2023/12/18 10:23:39;;;;;;;4.60;3.70;;;;;;;10.25;83.70;101464.42;181373;1255;44157;-86
2023/12/18 10:27:42;;;;;;;5.40;3.90;;;;;;;10.24;83.53;101475.31;181497;1254;43761;-85
2023/12/18 10:31:47;;;;;;;10.00;4.50;;;;;;;10.35;83.40;101474.48;181471;1254;44083;-86
2023/12/18 10:35:53;;;;;;;7.90;5.30;;;;;;;10.37;82.72;101475.38;181285;1255;43821;-86
2023/12/18 10:40:07;;;;;;;5.40;3.60;;;;;;;10.37;81.91;101474.16;181532;1255;58238;-85
2023/12/18 10:44:14;;;;;;;3.60;2.90;;;;;;;10.37;82.51;101465.65;181495;1254;44353;-86
2023/12/18 10:48:18;;;;;;;3.50;3.00;;;;;;;10.30;82.49;101474.20;181528;1254;43811;-87
2023/12/18 10:52:23;;;;;;;6.20;3.60;;;;;;;10.30;82.99;101467.80;181270;1255;44019;-86
2023/12/18 10:56:28;;;;;;;8.90;3.00;;;;;;;10.31;84.76;101460.88;181494;1255;43793;-86
2023/12/18 11:00:33;;;;;;;4.80;3.00;;;;;;;10.34;85.47;101442.08;181427;1255;57740;-85
2023/12/18 11:04:37;;;;;;;4.30;3.70;;;;;;;10.44;86.06;101435.45;181512;1254;44017;-86
2023/12/18 11:08:40;;;;;;;5.90;3.60;;;;;;;10.54;87.85;101424.17;181449;1249;44108;-85
2023/12/18 11:12:45;;;;;;;5.30;3.10;;;;;;;10.74;86.53;101412.09;181767;1253;43955;-83
2023/12/18 11:17:11;;;;;;;4.20;2.40;;;;;;;10.89;84.15;101401.54;181821;1253;44181;-83
2023/12/18 11:21:15;;;;;;;4.00;2.90;;;;;;;10.98;83.17;101417.77;181837;1253;59227;-84
2023/12/18 11:25:18;;;;;;;5.40;2.70;;;;;;;11.02;84.04;101405.33;181704;1253;44091;-82
2023/12/18 11:29:37;;;;;;;6.20;3.20;;;;;;;11.01;81.82;101389.92;181839;1253;44002;-84
2023/12/18 11:34:03;;;;;;;4.40;2.60;;;;;;;10.64;79.95;101380.96;182053;1253;43742;-83
2023/12/18 11:38:08;;;;;;;5.70;3.40;;;;;;;10.38;82.07;101403.16;181713;1253;43967;-83
2023/12/18 11:42:12;;;;;;;3.10;2.80;;;;;;;10.15;83.71;101404.58;181820;1253;58007;-85
2023/12/18 11:46:16;;;;;;;4.90;3.50;;;;;;;9.99;83.32;101399.86;181868;1253;43745;-84
2023/12/18 11:50:24;;;;;;;2.90;2.70;;;;;;;9.83;84.16;101394.48;181753;1253;44079;-82
2023/12/18 11:54:27;;;;;;;4.80;2.60;;;;;;;9.78;85.13;101383.75;181651;1253;44048;-84
2023/12/18 11:58:30;;;;;;;6.50;2.30;;;;;;;9.75;85.23;101375.98;181728;1253;44196;-83
2023/12/18 12:02:34;;;;;;;6.20;3.60;;;;;;;9.80;85.98;101366.66;181777;1252;57884;-83
2023/12/18 12:06:38;;;;;;;3.30;2.40;;;;;;;9.92;85.45;101372.17;181759;1253;44202;-82
2023/12/18 12:10:46;;;;;;;6.70;3.60;;;;;;;10.00;86.50;101383.51;181815;1253;44006;-84
2023/12/18 12:14:49;;;;;;;5.90;3.70;;;;;;;10.09;86.22;101384.55;181809;1253;44065;-83
2023/12/18 12:18:54;;;;;;;8.60;3.30;;;;;;;10.18;85.33;101383.12;181812;1253;43985;-84
2023/12/18 12:22:58;;;;;;;5.00;4.10;;;;;;;10.31;84.47;101382.16;181771;1253;59271;-84
2023/12/18 12:27:01;;;;;;;7.20;4.40;;;;;;;10.41;85.32;101397.30;181861;1253;44321;-84
2023/12/18 12:31:04;;;;;;;5.10;3.00;;;;;;;10.49;84.90;101396.84;182018;1253;43886;-83
2023/12/18 12:35:08;;;;;;;10.90;5.60;;;;;;;10.54;85.10;101382.99;181940;1253;44013;-84
2023/12/18 12:39:11;;;;;;;4.40;3.30;;;;;;;10.56;84.77;101383.59;181753;1253;44251;-84
2023/12/18 12:43:15;;;;;;;4.60;2.70;;;;;;;10.47;82.78;101382.40;181874;1253;59217;-84
2023/12/18 12:47:18;;;;;;;6.10;3.30;;;;;;;10.32;84.02;101375.53;181881;1253;43935;-84
2023/12/18 12:51:21;;;;;;;4.30;3.40;;;;;;;10.18;83.92;101364.19;181779;1253;44327;-84
2023/12/18 12:55:25;;;;;;;4.30;2.90;;;;;;;10.05;85.76;101368.17;181803;1253;44243;-84
2023/12/18 12:59:28;;;;;;;3.60;2.20;;;;;;;9.85;86.53;101373.82;181803;1253;44095;-82
2023/12/18 13:03:32;;;;;;;5.30;3.70;;;;;;;9.79;88.78;101382.34;181818;1254;58992;-85
2023/12/18 13:07:35;;;;;;;8.40;5.30;;;;;;;9.76;87.38;101377.36;181836;1252;43870;-84
2023/12/18 13:11:39;;;;;;;9.20;4.30;;;;;;;9.70;87.39;101375.77;181819;1253;43958;-84
2023/12/18 13:15:42;;;;;;;6.10;3.50;;;;;;;9.60;88.83;101382.02;181747;1253;43942;-84
2023/12/18 13:19:45;;;;;;;12.30;5.30;;;;;;;9.58;89.25;101381.10;181523;1253;43805;-83
2023/12/18 13:23:49;;;;;;;7.80;5.30;;;;;;;9.60;87.62;101384.69;181818;1253;59450;-83
2023/12/18 13:27:51;;;;;;;9.70;7.10;;;;;;;9.60;87.17;101384.52;181853;1253;43812;-83
2023/12/18 13:31:54;;;;;;;8.20;7.40;;;;;;;9.59;87.47;101368.25;181773;1253;44178;-84
2023/12/18 13:35:57;;;;;;;10.10;6.40;;;;;;;9.50;86.86;101362.25;181780;1254;44220;-83
2023/12/18 13:40:00;;;;;;;8.20;4.90;;;;;;;9.49;87.70;101359.00;181575;1253;44142;-84
2023/12/18 13:44:04;;;;;;;17.70;5.90;;;;;;;9.43;88.07;101367.48;181791;1253;57541;-82
2023/12/18 13:48:08;;;;;;;6.90;5.60;;;;;;;9.42;88.68;101366.81;181572;1253;44174;-84
2023/12/18 13:52:13;;;;;;;5.80;4.80;;;;;;;9.42;88.75;101370.38;181792;1253;44047;-84
2023/12/18 13:56:16;;;;;;;11.30;5.90;;;;;;;9.36;88.98;101371.24;181701;1253;44099;-83
2023/12/18 14:00:19;;;;;;;10.20;5.80;;;;;;;9.37;88.50;101370.10;181756;1253;44152;-82
2023/12/18 14:04:26;;;;;;;17.70;9.60;;;;;;;9.34;88.72;101375.11;181811;1253;58208;-84
2023/12/18 14:08:29;;;;;;;10.10;7.00;;;;;;;9.31;88.87;101378.80;181804;1253;44086;-84
2023/12/18 14:12:33;;;;;;;7.60;5.40;;;;;;;9.26;89.54;101379.23;181562;1257;44048;-84
2023/12/18 14:16:38;;;;;;;13.70;9.50;;;;;;;9.13;90.09;101383.52;181824;1253;44521;-84
2023/12/18 14:20:40;;;;;;;13.70;10.90;;;;;;;9.02;90.27;101388.42;181829;1253;44309;-83
2023/12/18 14:24:43;;;;;;;15.90;12.40;;;;;;;9.02;90.14;101393.36;181799;1253;59889;-82
2023/12/18 14:28:46;;;;;;;24.00;16.00;;;;;;;9.06;90.30;101386.13;181707;1253;44076;-84
2023/12/18 14:32:49;;;;;;;11.20;9.80;;;;;;;8.99;91.44;101381.02;181876;1253;44193;-84
2023/12/18 14:36:53;;;;;;;8.00;5.20;;;;;;;8.78;93.49;101385.02;181626;1253;44131;-83
2023/12/18 14:40:56;;;;;;;6.10;5.30;;;;;;;8.53;95.95;101384.98;181898;1257;44163;-81
2023/12/18 14:44:59;;;;;;;8.70;5.30;;;;;;;8.40;96.56;101389.73;181865;1253;59365;-82
2023/12/18 14:49:02;;;;;;;8.00;6.20;;;;;;;8.27;97.79;101390.30;181820;1253;44232;-82
2023/12/18 14:53:06;;;;;;;8.30;5.70;;;;;;;8.11;98.64;101389.71;182285;1253;43179;-78
2023/12/18 14:57:09;;;;;;;9.20;6.90;;;;;;;7.94;99.76;101389.71;182136;1253;43278;-82
2023/12/18 15:01:13;;;;;;;9.00;6.50;;;;;;;7.83;99.90;101388.02;181867;1253;44173;-83
2023/12/18 15:05:16;;;;;;;8.20;6.40;;;;;;;7.80;99.98;101384.10;181554;1256;58446;-81
2023/12/18 15:09:19;;;;;;;16.50;8.00;;;;;;;7.72;100.00;101383.61;181832;1253;43807;-82
2023/12/18 15:13:22;;;;;;;11.50;8.70;;;;;;;7.73;99.66;101380.38;181806;1253;44120;-82
2023/12/18 15:17:26;;;;;;;10.20;6.60;;;;;;;7.74;99.30;101385.80;181678;1253;44147;-83
2023/12/18 15:21:30;;;;;;;12.80;6.50;;;;;;;7.74;98.38;101381.40;181862;1253;44051;-82
2023/12/18 15:25:33;;;;;;;8.60;5.60;;;;;;;7.78;97.67;101385.98;181836;1253;57751;-82
2023/12/18 15:29:35;;;;;;;8.10;6.00;;;;;;;7.79;97.14;101380.45;181858;1254;43744;-83
2023/12/18 15:33:38;;;;;;;13.50;8.40;;;;;;;7.79;96.83;101380.58;181748;1253;44082;-81
2023/12/18 15:37:42;;;;;;;8.00;5.90;;;;;;;7.83;96.25;101374.23;181823;1256;44360;-80
2023/12/18 15:41:46;;;;;;;9.30;5.80;;;;;;;7.88;95.81;101366.90;181815;1253;44070;-83
2023/12/18 15:45:49;;;;;;;9.80;6.10;;;;;;;7.93;95.60;101359.40;181719;1253;58226;-82
2023/12/18 15:49:53;;;;;;;12.70;6.00;;;;;;;7.94;95.11;101354.41;181586;1254;44042;-82
2023/12/18 15:53:56;;;;;;;19.30;7.50;;;;;;;7.94;95.20;101352.65;181828;1253;44284;-82
2023/12/18 15:57:59;;;;;;;7.60;6.00;;;;;;;7.94;95.15;101346.45;181564;1253;44084;-83
2023/12/18 16:02:03;;;;;;;11.40;6.70;;;;;;;7.95;94.59;101350.26;181833;1253;44192;-82
2023/12/18 16:06:06;;;;;;;13.40;6.70;;;;;;;7.94;94.10;101349.11;181619;1253;59228;-81
2023/12/18 16:10:09;;;;;;;9.60;7.30;;;;;;;7.89;94.14;101341.78;181800;1253;43813;-82
2023/12/18 16:14:12;;;;;;;9.40;7.00;;;;;;;7.81;93.94;101331.39;181836;1254;43758;-82
2023/12/18 16:18:15;;;;;;;10.90;7.80;;;;;;;7.73;93.44;101330.25;181736;1254;44016;-82
2023/12/18 16:22:18;;;;;;;16.80;9.10;;;;;;;7.61;92.82;101329.81;181819;1254;44003;-82
2023/12/18 16:26:22;;;;;;;13.30;8.70;;;;;;;7.42;93.01;101323.55;181598;1253;59645;-81
2023/12/18 16:30:25;;;;;;;17.90;10.10;;;;;;;7.28;93.29;101327.79;181764;1254;43893;-80
2023/12/18 16:34:31;;;;;;;37.60;20.80;;;;;;;7.22;93.48;101327.76;181759;1254;44049;-82
2023/12/18 16:38:34;;;;;;;50.50;29.60;;;;;;;7.15;93.54;101330.39;181657;1253;43900;-82
2023/12/18 16:42:38;;;;;;;59.80;36.50;;;;;;;7.02;93.71;101329.78;181850;1254;43945;-81
2023/12/18 16:46:52;;;;;;;116.40;65.00;;;;;;;6.87;94.07;101326.50;181656;1254;57885;-80
2023/12/18 16:50:59;;;;;;;91.50;53.30;;;;;;;6.77;94.78;101320.48;181622;1257;44159;-81
2023/12/18 16:55:02;;;;;;;77.60;50.60;;;;;;;6.69;94.44;101318.52;181846;1253;43811;-81
2023/12/18 16:59:05;;;;;;;77.50;53.10;;;;;;;6.62;94.07;101312.02;181605;1253;44129;-81
2023/12/18 17:03:08;;;;;;;291.40;151.30;;;;;;;6.51;95.26;101310.80;181824;1253;43801;-81
2023/12/18 17:07:11;;;;;;;558.60;333.60;;;;;;;6.42;97.22;101305.55;181694;1254;58041;-80
2023/12/18 17:11:14;;;;;;;568.10;313.50;;;;;;;6.33;98.76;101306.86;181576;1253;43859;-81
2023/12/18 17:15:17;;;;;;;100.80;54.50;;;;;;;6.21;99.93;101301.11;181702;1253;43830;-81
2023/12/18 17:19:20;;;;;;;124.00;58.30;;;;;;;6.10;100.00;101297.90;181684;1253;44043;-81
2023/12/18 17:23:23;;;;;;;133.00;68.00;;;;;;;6.03;100.00;101293.98;182165;1256;43186;-80
2023/12/18 17:27:26;;;;;;;95.20;54.70;;;;;;;5.98;100.00;101291.75;181825;1256;57410;-80
2023/12/18 17:31:30;;;;;;;112.10;64.40;;;;;;;5.83;100.00;101297.67;181723;1254;44173;-81
2023/12/18 17:35:34;;;;;;;88.90;49.00;;;;;;;5.75;100.00;101303.52;181484;1258;44229;-80
2023/12/18 17:39:37;;;;;;;70.90;44.90;;;;;;;5.61;100.00;101297.80;181778;1255;43911;-80
2023/12/18 17:43:40;;;;;;;140.00;89.60;;;;;;;5.51;100.00;101292.06;181731;1253;43797;-80
2023/12/18 17:47:43;;;;;;;125.20;78.00;;;;;;;5.44;100.00;101286.60;181751;1254;58833;-79
2023/12/18 17:51:47;;;;;;;96.10;65.50;;;;;;;5.37;100.00;101285.86;181714;1255;44122;-80
2023/12/18 17:55:50;;;;;;;79.00;57.00;;;;;;;5.33;100.00;101278.65;181747;1253;44051;-80
2023/12/18 17:59:52;;;;;;;82.70;57.10;;;;;;;5.31;100.00;101272.58;181714;1257;44213;-79
2023/12/18 18:03:58;;;;;;;93.30;60.40;;;;;;;5.32;100.00;101269.53;181769;1254;44094;-81
2023/12/18 18:08:02;;;;;;;106.60;71.40;;;;;;;5.37;100.00;101271.06;181692;1254;57797;-77
2023/12/18 18:12:05;;;;;;;139.40;80.10;;;;;;;5.39;100.00;101267.28;181490;1254;44104;-80
2023/12/18 18:16:09;;;;;;;104.40;60.00;;;;;;;5.35;100.00;101262.35;181675;1254;43712;-81
2023/12/18 18:20:12;;;;;;;84.50;51.60;;;;;;;5.18;100.00;101255.16;181669;1254;43989;-81
2023/12/18 18:24:15;;;;;;;127.70;95.10;;;;;;;4.94;100.00;101252.69;181547;1253;44628;-80
2023/12/18 18:28:18;;;;;;;109.20;85.80;;;;;;;4.69;100.00;101250.77;181509;1254;58362;-79
2023/12/18 18:32:21;;;;;;;75.40;44.00;;;;;;;4.59;100.00;101246.73;181776;1254;44457;-80
2023/12/18 18:36:30;;;;;;;65.60;43.60;;;;;;;4.55;100.00;101235.30;181642;1252;43824;-81
2023/12/18 18:40:33;;;;;;;80.30;40.60;;;;;;;4.47;100.00;101232.31;181728;1254;44301;-78
2023/12/18 18:44:36;;;;;;;75.10;48.60;;;;;;;4.54;100.00;101239.91;181612;1254;44084;-79